BCS3316 EDDP-ESSA
Flight info
| Callsign | BCS3316 |
|---|---|
| Flight time | 1h 22m |
| Altitude | 33000 |
| Route | PENEM1S PENEM Z131 PENEK DCT DETNI DCT VIBAR/N0439F270 Z227 NILUG |
| Aircraft | B77L/H-SDE1E2E3FGHIJ2J3J4J5M1RWXY/LB1D1 |
Departure
| Time | 2026-05-06 15:08 |
|---|---|
| Airport | Leipzig/Halle Airport (EDDP) |
Arrival
| Time | 2026-05-06 16:30 |
|---|---|
| Airport | Stockholm-Arlanda Airport (ESSA) |
| Time | Latitude | Longitude | Altitude | Speed | Heading |
|---|---|---|---|---|---|
| 2026-05-06 14:37 | 51.40791 | 12.24530 | 468 ft | 0 kts | 265° |
| 2026-05-06 14:58 | 51.40791 | 12.24531 | 468 ft | 1 kts | 265° |
| 2026-05-06 14:58 | 51.40794 | 12.24569 | 466 ft | 4 kts | 258° |
| 2026-05-06 14:58 | 51.40798 | 12.24595 | 461 ft | 2 kts | 296° |
| 2026-05-06 14:59 | 51.40787 | 12.24622 | 461 ft | 4 kts | 329° |
| 2026-05-06 14:59 | 51.40764 | 12.24635 | 460 ft | 4 kts | 353° |
| 2026-05-06 14:59 | 51.40750 | 12.24637 | 462 ft | 1 kts | 355° |
| 2026-05-06 15:05 | 51.40782 | 12.24633 | 467 ft | 17 kts | 355° |
| 2026-05-06 15:05 | 51.40919 | 12.24617 | 471 ft | 18 kts | 355° |
| 2026-05-06 15:05 | 51.41041 | 12.24602 | 469 ft | 16 kts | 356° |
| 2026-05-06 15:05 | 51.41095 | 12.24660 | 470 ft | 11 kts | 76° |
| 2026-05-06 15:06 | 51.41109 | 12.24876 | 476 ft | 24 kts | 86° |
| 2026-05-06 15:06 | 51.41122 | 12.25147 | 474 ft | 24 kts | 85° |
| 2026-05-06 15:06 | 51.41136 | 12.25441 | 474 ft | 32 kts | 85° |
| 2026-05-06 15:06 | 51.41155 | 12.25592 | 473 ft | 4 kts | 52° |
| 2026-05-06 15:07 | 51.41268 | 12.25614 | 482 ft | 26 kts | 354° |
| 2026-05-06 15:07 | 51.41393 | 12.25467 | 479 ft | 16 kts | 279° |
| 2026-05-06 15:07 | 51.41393 | 12.25408 | 482 ft | 3 kts | 266° |
| 2026-05-06 15:07 | 51.41384 | 12.25219 | 477 ft | 57 kts | 266° |
| 2026-05-06 15:08 | 51.41318 | 12.23801 | 473 ft | 196 kts | 266° |
| 2026-05-06 15:08 | 51.41203 | 12.21411 | 1687 ft | 224 kts | 266° |
| 2026-05-06 15:08 | 51.41096 | 12.18881 | 3478 ft | 227 kts | 264° |
| 2026-05-06 15:08 | 51.40979 | 12.16394 | 5678 ft | 227 kts | 264° |
| 2026-05-06 15:09 | 51.40902 | 12.13693 | 6380 ft | 248 kts | 272° |
| 2026-05-06 15:09 | 51.41547 | 12.11102 | 6573 ft | 260 kts | 305° |
| 2026-05-06 15:09 | 51.42932 | 12.09223 | 6437 ft | 265 kts | 328° |
| 2026-05-06 15:09 | 51.44560 | 12.08060 | 6539 ft | 258 kts | 345° |
| 2026-05-06 15:10 | 51.46426 | 12.07945 | 6872 ft | 272 kts | 0° |
| 2026-05-06 15:10 | 51.48311 | 12.08067 | 7374 ft | 277 kts | 360° |
| 2026-05-06 15:10 | 51.50251 | 12.08142 | 7877 ft | 280 kts | 358° |
| 2026-05-06 15:10 | 51.52221 | 12.08178 | 8400 ft | 287 kts | 358° |
| 2026-05-06 15:11 | 51.54234 | 12.08217 | 8936 ft | 291 kts | 359° |
| 2026-05-06 15:11 | 51.56266 | 12.08291 | 9463 ft | 293 kts | 359° |
| 2026-05-06 15:11 | 51.58361 | 12.08370 | 9996 ft | 309 kts | 359° |
| 2026-05-06 15:11 | 51.60538 | 12.08450 | 10506 ft | 317 kts | 359° |
| 2026-05-06 15:12 | 51.62751 | 12.08529 | 11001 ft | 318 kts | 359° |
| 2026-05-06 15:12 | 51.64969 | 12.08604 | 11499 ft | 320 kts | 359° |
| 2026-05-06 15:12 | 51.67201 | 12.08678 | 12003 ft | 322 kts | 359° |
| 2026-05-06 15:12 | 51.69442 | 12.08753 | 12518 ft | 322 kts | 359° |
| 2026-05-06 15:13 | 51.70943 | 12.09022 | 12849 ft | 324 kts | 12° |
| 2026-05-06 15:13 | 51.73012 | 12.10531 | 13409 ft | 332 kts | 29° |
| 2026-05-06 15:13 | 51.75041 | 12.12438 | 13935 ft | 340 kts | 28° |
| 2026-05-06 15:13 | 51.77105 | 12.14322 | 14406 ft | 341 kts | 27° |
| 2026-05-06 15:14 | 51.79261 | 12.15962 | 14895 ft | 343 kts | 21° |
| 2026-05-06 15:14 | 51.81483 | 12.17409 | 15406 ft | 346 kts | 20° |
| 2026-05-06 15:14 | 51.83742 | 12.18815 | 15910 ft | 349 kts | 19° |
| 2026-05-06 15:14 | 51.86019 | 12.20228 | 16414 ft | 351 kts | 19° |
| 2026-05-06 15:15 | 51.88307 | 12.21663 | 16949 ft | 354 kts | 20° |
| 2026-05-06 15:15 | 51.90609 | 12.23122 | 17479 ft | 357 kts | 20° |
| 2026-05-06 15:15 | 51.92925 | 12.24604 | 18022 ft | 360 kts | 20° |
| 2026-05-06 15:15 | 51.95264 | 12.26112 | 18507 ft | 363 kts | 20° |
| 2026-05-06 15:16 | 51.97618 | 12.27638 | 18993 ft | 366 kts | 20° |
| 2026-05-06 15:16 | 51.99994 | 12.29184 | 19492 ft | 369 kts | 20° |
| 2026-05-06 15:16 | 52.02386 | 12.30745 | 19988 ft | 373 kts | 20° |
| 2026-05-06 15:16 | 52.04804 | 12.32325 | 20493 ft | 376 kts | 20° |
| 2026-05-06 15:17 | 52.07236 | 12.33918 | 21011 ft | 379 kts | 20° |
| 2026-05-06 15:17 | 52.09688 | 12.35526 | 21539 ft | 382 kts | 20° |
| 2026-05-06 15:17 | 52.12163 | 12.37151 | 22079 ft | 385 kts | 20° |
| 2026-05-06 15:17 | 52.14654 | 12.38788 | 22627 ft | 388 kts | 20° |
| 2026-05-06 15:18 | 52.17171 | 12.40446 | 23183 ft | 391 kts | 20° |
| 2026-05-06 15:18 | 52.19704 | 12.42114 | 23683 ft | 394 kts | 20° |
| 2026-05-06 15:18 | 52.22256 | 12.43799 | 24160 ft | 398 kts | 20° |
| 2026-05-06 15:18 | 52.24834 | 12.45502 | 24640 ft | 402 kts | 20° |
| 2026-05-06 15:19 | 52.27438 | 12.47224 | 25140 ft | 406 kts | 20° |
| 2026-05-06 15:19 | 52.30061 | 12.48961 | 25645 ft | 409 kts | 20° |
| 2026-05-06 15:19 | 52.32717 | 12.50722 | 26165 ft | 414 kts | 20° |
| 2026-05-06 15:19 | 52.35397 | 12.52502 | 26676 ft | 418 kts | 20° |
| 2026-05-06 15:20 | 52.38104 | 12.54301 | 27208 ft | 422 kts | 20° |
| 2026-05-06 15:20 | 52.40833 | 12.56119 | 27751 ft | 426 kts | 20° |
| 2026-05-06 15:20 | 52.43596 | 12.57961 | 28308 ft | 430 kts | 20° |
| 2026-05-06 15:20 | 52.46384 | 12.59822 | 28871 ft | 435 kts | 20° |
| 2026-05-06 15:21 | 52.49199 | 12.61704 | 29441 ft | 439 kts | 20° |
| 2026-05-06 15:21 | 52.52042 | 12.63607 | 30018 ft | 444 kts | 20° |
| 2026-05-06 15:21 | 52.54919 | 12.65536 | 30517 ft | 448 kts | 20° |
| 2026-05-06 15:21 | 52.57775 | 12.67454 | 31022 ft | 451 kts | 20° |
| 2026-05-06 15:22 | 52.60691 | 12.69414 | 31539 ft | 455 kts | 20° |
| 2026-05-06 15:22 | 52.63627 | 12.71392 | 32065 ft | 457 kts | 20° |
| 2026-05-06 15:22 | 52.66574 | 12.73380 | 32608 ft | 459 kts | 20° |
| 2026-05-06 15:22 | 52.69531 | 12.75377 | 32881 ft | 461 kts | 20° |
| 2026-05-06 15:23 | 52.72513 | 12.77394 | 32827 ft | 463 kts | 20° |
| 2026-05-06 15:23 | 52.78605 | 12.81520 | 32860 ft | 485 kts | 20° |
| 2026-05-06 15:23 | 52.81724 | 12.83634 | 32856 ft | 499 kts | 20° |
| 2026-05-06 15:24 | 52.84987 | 12.85850 | 32855 ft | 513 kts | 20° |
| 2026-05-06 15:24 | 52.91678 | 12.90416 | 32853 ft | 524 kts | 20° |
| 2026-05-06 15:25 | 52.98417 | 12.95037 | 32839 ft | 523 kts | 20° |
| 2026-05-06 15:25 | 53.05128 | 12.99651 | 32846 ft | 521 kts | 21° |
| 2026-05-06 15:26 | 53.11817 | 13.04261 | 32848 ft | 520 kts | 21° |
| 2026-05-06 15:26 | 53.18498 | 13.08879 | 32846 ft | 519 kts | 21° |
| 2026-05-06 15:27 | 53.25166 | 13.13505 | 32850 ft | 519 kts | 21° |
| 2026-05-06 15:27 | 53.31827 | 13.18137 | 32851 ft | 518 kts | 21° |
| 2026-05-06 15:28 | 53.38474 | 13.22775 | 32848 ft | 517 kts | 21° |
| 2026-05-06 15:28 | 53.45115 | 13.27429 | 32858 ft | 517 kts | 21° |
| 2026-05-06 15:29 | 53.51739 | 13.32088 | 32856 ft | 516 kts | 21° |
| 2026-05-06 15:29 | 53.58356 | 13.36758 | 32857 ft | 515 kts | 22° |
| 2026-05-06 15:30 | 53.64963 | 13.41437 | 32856 ft | 515 kts | 22° |
| 2026-05-06 15:30 | 53.71559 | 13.46124 | 32864 ft | 514 kts | 22° |
| 2026-05-06 15:31 | 53.78150 | 13.50823 | 32872 ft | 514 kts | 22° |
| 2026-05-06 15:31 | 53.84741 | 13.55538 | 32865 ft | 514 kts | 22° |
| 2026-05-06 15:32 | 53.94573 | 13.62603 | 32865 ft | 514 kts | 22° |
| 2026-05-06 15:32 | 54.01146 | 13.67345 | 32868 ft | 513 kts | 22° |
| 2026-05-06 15:33 | 54.07717 | 13.72103 | 32872 ft | 513 kts | 22° |
| 2026-05-06 15:33 | 54.14274 | 13.76866 | 32880 ft | 512 kts | 22° |
| 2026-05-06 15:34 | 54.20831 | 13.81647 | 32882 ft | 512 kts | 22° |
| 2026-05-06 15:34 | 54.27372 | 13.86432 | 32886 ft | 511 kts | 22° |
| 2026-05-06 15:35 | 54.33908 | 13.91230 | 32890 ft | 511 kts | 22° |
| 2026-05-06 15:35 | 54.40438 | 13.96041 | 32898 ft | 511 kts | 22° |
| 2026-05-06 15:36 | 54.46970 | 14.00870 | 32894 ft | 511 kts | 22° |
| 2026-05-06 15:36 | 54.53498 | 14.05713 | 32901 ft | 511 kts | 22° |
| 2026-05-06 15:37 | 54.60024 | 14.10571 | 32904 ft | 510 kts | 22° |
| 2026-05-06 15:37 | 54.66540 | 14.15438 | 32905 ft | 510 kts | 23° |
| 2026-05-06 15:38 | 54.73008 | 14.20287 | 32910 ft | 510 kts | 23° |
| 2026-05-06 15:38 | 54.79511 | 14.25181 | 32914 ft | 510 kts | 23° |
| 2026-05-06 15:39 | 54.86008 | 14.30087 | 32916 ft | 509 kts | 23° |
| 2026-05-06 15:39 | 54.92496 | 14.34996 | 32931 ft | 508 kts | 23° |
| 2026-05-06 15:40 | 54.99029 | 14.39733 | 32926 ft | 508 kts | 22° |
| 2026-05-06 15:40 | 55.05575 | 14.44373 | 32940 ft | 507 kts | 21° |
| 2026-05-06 15:41 | 55.12111 | 14.49038 | 32947 ft | 509 kts | 22° |
| 2026-05-06 15:41 | 55.18663 | 14.53763 | 32927 ft | 509 kts | 22° |
| 2026-05-06 15:42 | 55.25188 | 14.58499 | 32935 ft | 507 kts | 22° |
| 2026-05-06 15:42 | 55.31695 | 14.63238 | 32935 ft | 506 kts | 22° |
| 2026-05-06 15:43 | 55.38209 | 14.67996 | 32932 ft | 507 kts | 22° |
| 2026-05-06 15:43 | 55.44685 | 14.72742 | 32939 ft | 507 kts | 22° |
| 2026-05-06 15:44 | 55.51195 | 14.77531 | 32942 ft | 507 kts | 22° |
| 2026-05-06 15:44 | 55.57702 | 14.82334 | 32939 ft | 508 kts | 22° |
| 2026-05-06 15:45 | 55.64235 | 14.87175 | 32943 ft | 508 kts | 22° |
| 2026-05-06 15:45 | 55.70759 | 14.92027 | 32931 ft | 509 kts | 22° |
| 2026-05-06 15:46 | 55.77282 | 14.96895 | 32932 ft | 509 kts | 22° |
| 2026-05-06 15:46 | 55.83807 | 15.01782 | 32941 ft | 509 kts | 22° |
| 2026-05-06 15:47 | 55.90327 | 15.06683 | 32945 ft | 509 kts | 22° |
| 2026-05-06 15:47 | 55.96847 | 15.11603 | 32946 ft | 509 kts | 22° |
| 2026-05-06 15:48 | 56.03365 | 15.16539 | 32951 ft | 509 kts | 22° |
| 2026-05-06 15:48 | 56.09884 | 15.21495 | 32962 ft | 509 kts | 22° |
| 2026-05-06 15:49 | 56.16411 | 15.26474 | 32968 ft | 509 kts | 22° |
| 2026-05-06 15:49 | 56.22929 | 15.31465 | 32969 ft | 510 kts | 22° |
| 2026-05-06 15:50 | 56.29456 | 15.36482 | 32965 ft | 510 kts | 22° |
| 2026-05-06 15:50 | 56.35991 | 15.41524 | 32965 ft | 511 kts | 22° |
| 2026-05-06 15:51 | 56.42529 | 15.46586 | 32962 ft | 511 kts | 22° |
| 2026-05-06 15:51 | 56.49025 | 15.51636 | 32955 ft | 512 kts | 22° |
| 2026-05-06 15:52 | 56.55572 | 15.56744 | 32958 ft | 512 kts | 22° |
| 2026-05-06 15:52 | 56.62124 | 15.61875 | 32954 ft | 513 kts | 22° |
| 2026-05-06 15:53 | 56.68682 | 15.67030 | 32957 ft | 514 kts | 22° |
| 2026-05-06 15:53 | 56.75249 | 15.72212 | 32963 ft | 515 kts | 23° |
| 2026-05-06 15:54 | 56.81829 | 15.77424 | 32962 ft | 516 kts | 23° |
| 2026-05-06 15:54 | 56.88409 | 15.82657 | 32971 ft | 517 kts | 23° |
| 2026-05-06 15:55 | 56.95011 | 15.87928 | 32963 ft | 518 kts | 23° |
| 2026-05-06 15:55 | 57.01616 | 15.93221 | 32968 ft | 519 kts | 23° |
| 2026-05-06 15:56 | 57.08233 | 15.98545 | 32970 ft | 520 kts | 23° |
| 2026-05-06 15:56 | 57.14872 | 16.03907 | 32977 ft | 521 kts | 23° |
| 2026-05-06 15:57 | 57.21513 | 16.09292 | 32968 ft | 522 kts | 23° |
| 2026-05-06 15:57 | 57.28121 | 16.14671 | 32971 ft | 523 kts | 23° |
| 2026-05-06 15:58 | 57.34823 | 16.20150 | 32975 ft | 524 kts | 23° |
| 2026-05-06 15:58 | 57.41455 | 16.25592 | 32978 ft | 525 kts | 23° |
| 2026-05-06 15:59 | 57.48142 | 16.31102 | 32982 ft | 526 kts | 23° |
| 2026-05-06 15:59 | 57.54845 | 16.36645 | 32980 ft | 528 kts | 23° |
| 2026-05-06 16:00 | 57.60348 | 16.41809 | 32986 ft | 529 kts | 31° |
| 2026-05-06 16:00 | 57.66601 | 16.49070 | 32981 ft | 526 kts | 32° |
| 2026-05-06 16:01 | 57.72703 | 16.56363 | 32831 ft | 520 kts | 32° |
| 2026-05-06 16:01 | 57.75725 | 16.59955 | 32328 ft | 520 kts | 32° |
| 2026-05-06 16:01 | 57.78806 | 16.63595 | 31922 ft | 514 kts | 32° |
| 2026-05-06 16:02 | 57.81819 | 16.67143 | 31490 ft | 509 kts | 31° |
| 2026-05-06 16:02 | 57.84807 | 16.70657 | 31056 ft | 505 kts | 31° |
| 2026-05-06 16:02 | 57.87776 | 16.74154 | 30627 ft | 502 kts | 31° |
| 2026-05-06 16:02 | 57.90722 | 16.77629 | 30207 ft | 499 kts | 31° |
| 2026-05-06 16:03 | 57.93658 | 16.81102 | 29747 ft | 497 kts | 31° |
| 2026-05-06 16:03 | 57.96574 | 16.84559 | 29285 ft | 494 kts | 31° |
| 2026-05-06 16:03 | 57.99472 | 16.88003 | 28859 ft | 490 kts | 31° |
| 2026-05-06 16:03 | 58.02343 | 16.91422 | 28461 ft | 487 kts | 31° |
| 2026-05-06 16:04 | 58.05159 | 16.94784 | 28058 ft | 484 kts | 31° |
| 2026-05-06 16:04 | 58.08034 | 16.98221 | 27663 ft | 481 kts | 30° |
| 2026-05-06 16:04 | 58.10815 | 17.01552 | 27255 ft | 479 kts | 30° |
| 2026-05-06 16:04 | 58.13619 | 17.04919 | 26869 ft | 477 kts | 30° |
| 2026-05-06 16:05 | 58.16418 | 17.08284 | 26467 ft | 475 kts | 30° |
| 2026-05-06 16:05 | 58.19199 | 17.11633 | 26065 ft | 474 kts | 30° |
| 2026-05-06 16:05 | 58.21978 | 17.14985 | 25677 ft | 472 kts | 30° |
| 2026-05-06 16:05 | 58.24733 | 17.18317 | 25288 ft | 469 kts | 30° |
| 2026-05-06 16:06 | 58.27480 | 17.21645 | 24905 ft | 467 kts | 30° |
| 2026-05-06 16:06 | 58.30210 | 17.24959 | 24525 ft | 464 kts | 30° |
| 2026-05-06 16:06 | 58.32920 | 17.28255 | 24148 ft | 461 kts | 29° |
| 2026-05-06 16:06 | 58.35613 | 17.31536 | 23774 ft | 458 kts | 29° |
| 2026-05-06 16:07 | 58.38280 | 17.34792 | 23371 ft | 454 kts | 29° |
| 2026-05-06 16:07 | 58.40930 | 17.38031 | 22936 ft | 451 kts | 29° |
| 2026-05-06 16:07 | 58.43565 | 17.41257 | 22501 ft | 447 kts | 29° |
| 2026-05-06 16:07 | 58.46172 | 17.44455 | 22066 ft | 443 kts | 29° |
| 2026-05-06 16:08 | 58.48756 | 17.47631 | 21654 ft | 440 kts | 29° |
| 2026-05-06 16:08 | 58.51319 | 17.50787 | 21229 ft | 436 kts | 29° |
| 2026-05-06 16:08 | 58.53862 | 17.53924 | 20820 ft | 433 kts | 29° |
| 2026-05-06 16:08 | 58.56386 | 17.57042 | 20409 ft | 430 kts | 30° |
| 2026-05-06 16:09 | 58.58890 | 17.60141 | 20008 ft | 427 kts | 30° |
| 2026-05-06 16:09 | 58.61384 | 17.63234 | 19622 ft | 424 kts | 30° |
| 2026-05-06 16:09 | 58.63854 | 17.66301 | 19228 ft | 422 kts | 30° |
| 2026-05-06 16:09 | 58.66304 | 17.69349 | 18852 ft | 419 kts | 30° |
| 2026-05-06 16:10 | 58.68746 | 17.72393 | 18471 ft | 416 kts | 30° |
| 2026-05-06 16:10 | 58.71167 | 17.75415 | 18065 ft | 414 kts | 30° |
| 2026-05-06 16:10 | 58.73571 | 17.78421 | 17630 ft | 411 kts | 30° |
| 2026-05-06 16:10 | 58.75960 | 17.81413 | 17224 ft | 407 kts | 30° |
| 2026-05-06 16:11 | 58.78320 | 17.84374 | 16818 ft | 401 kts | 30° |
| 2026-05-06 16:11 | 58.80590 | 17.87232 | 16401 ft | 380 kts | 30° |
| 2026-05-06 16:11 | 58.82838 | 17.89912 | 16033 ft | 381 kts | 25° |
| 2026-05-06 16:11 | 58.85225 | 17.92080 | 15672 ft | 373 kts | 18° |
| 2026-05-06 16:12 | 58.87620 | 17.93649 | 15306 ft | 356 kts | 11° |
| 2026-05-06 16:12 | 58.90025 | 17.94702 | 15005 ft | 362 kts | 8° |
| 2026-05-06 16:12 | 58.92504 | 17.95679 | 14653 ft | 364 kts | 7° |
| 2026-05-06 16:12 | 58.94978 | 17.96637 | 14287 ft | 361 kts | 7° |
| 2026-05-06 16:13 | 58.97421 | 17.97589 | 13914 ft | 355 kts | 8° |
| 2026-05-06 16:13 | 58.99817 | 17.98533 | 13524 ft | 348 kts | 8° |
| 2026-05-06 16:13 | 59.02164 | 17.99469 | 13124 ft | 343 kts | 8° |
| 2026-05-06 16:13 | 59.04499 | 18.00400 | 12722 ft | 341 kts | 8° |
| 2026-05-06 16:14 | 59.06769 | 18.01471 | 12296 ft | 332 kts | 9° |
| 2026-05-06 16:14 | 59.09048 | 18.02346 | 11923 ft | 336 kts | 7° |
| 2026-05-06 16:14 | 59.11354 | 18.03190 | 11546 ft | 338 kts | 7° |
| 2026-05-06 16:14 | 59.13653 | 18.04023 | 11149 ft | 331 kts | 7° |
| 2026-05-06 16:15 | 59.15837 | 18.04818 | 10748 ft | 315 kts | 7° |
| 2026-05-06 16:15 | 59.17994 | 18.05595 | 10395 ft | 313 kts | 7° |
| 2026-05-06 16:15 | 59.20097 | 18.06346 | 10052 ft | 300 kts | 7° |
| 2026-05-06 16:15 | 59.22110 | 18.07058 | 9695 ft | 289 kts | 7° |
| 2026-05-06 16:16 | 59.24089 | 18.07755 | 9335 ft | 289 kts | 7° |
| 2026-05-06 16:16 | 59.26070 | 18.08446 | 8985 ft | 289 kts | 7° |
| 2026-05-06 16:16 | 59.28052 | 18.09133 | 8662 ft | 289 kts | 7° |
| 2026-05-06 16:16 | 59.30031 | 18.09812 | 8315 ft | 288 kts | 7° |
| 2026-05-06 16:17 | 59.31997 | 18.10485 | 7963 ft | 285 kts | 7° |
| 2026-05-06 16:17 | 59.33610 | 18.11037 | 7675 ft | 283 kts | 7° |
| 2026-05-06 16:17 | 59.35542 | 18.11693 | 7357 ft | 280 kts | 7° |
| 2026-05-06 16:17 | 59.37456 | 18.12339 | 7067 ft | 277 kts | 7° |
| 2026-05-06 16:18 | 59.39329 | 18.12968 | 7014 ft | 269 kts | 7° |
| 2026-05-06 16:18 | 59.41149 | 18.13584 | 6994 ft | 262 kts | 7° |
| 2026-05-06 16:18 | 59.42932 | 18.14189 | 6995 ft | 259 kts | 7° |
| 2026-05-06 16:18 | 59.44708 | 18.14796 | 7002 ft | 260 kts | 7° |
| 2026-05-06 16:19 | 59.46501 | 18.15402 | 7047 ft | 260 kts | 7° |
| 2026-05-06 16:19 | 59.48281 | 18.16016 | 6915 ft | 258 kts | 7° |
| 2026-05-06 16:19 | 59.50024 | 18.16623 | 6664 ft | 251 kts | 7° |
| 2026-05-06 16:19 | 59.51726 | 18.17213 | 6392 ft | 246 kts | 7° |
| 2026-05-06 16:20 | 59.53406 | 18.17794 | 6115 ft | 243 kts | 7° |
| 2026-05-06 16:20 | 59.55067 | 18.18374 | 5847 ft | 242 kts | 7° |
| 2026-05-06 16:20 | 59.56732 | 18.18953 | 5576 ft | 243 kts | 7° |
| 2026-05-06 16:20 | 59.58397 | 18.19528 | 5305 ft | 243 kts | 7° |
| 2026-05-06 16:21 | 59.60059 | 18.20107 | 5042 ft | 242 kts | 7° |
| 2026-05-06 16:21 | 59.61717 | 18.20680 | 4811 ft | 242 kts | 7° |
| 2026-05-06 16:21 | 59.63380 | 18.21254 | 4535 ft | 243 kts | 7° |
| 2026-05-06 16:21 | 59.65042 | 18.21828 | 4290 ft | 243 kts | 7° |
| 2026-05-06 16:22 | 59.66684 | 18.22391 | 4010 ft | 234 kts | 7° |
| 2026-05-06 16:22 | 59.68265 | 18.22933 | 3787 ft | 229 kts | 8° |
| 2026-05-06 16:22 | 59.69844 | 18.23469 | 3528 ft | 231 kts | 8° |
| 2026-05-06 16:22 | 59.71418 | 18.23994 | 3279 ft | 229 kts | 7° |
| 2026-05-06 16:23 | 59.72983 | 18.24505 | 3019 ft | 227 kts | 8° |
| 2026-05-06 16:23 | 59.74516 | 18.24989 | 2749 ft | 226 kts | 7° |
| 2026-05-06 16:23 | 59.76064 | 18.25466 | 2603 ft | 226 kts | 7° |
| 2026-05-06 16:23 | 59.77618 | 18.25949 | 2552 ft | 227 kts | 8° |
| 2026-05-06 16:24 | 59.79153 | 18.26141 | 2505 ft | 216 kts | 349° |
| 2026-05-06 16:24 | 59.80455 | 18.24842 | 2510 ft | 212 kts | 315° |
| 2026-05-06 16:24 | 59.81161 | 18.22304 | 2504 ft | 213 kts | 284° |
| 2026-05-06 16:24 | 59.81503 | 18.19442 | 2520 ft | 213 kts | 282° |
| 2026-05-06 16:25 | 59.81852 | 18.16588 | 2518 ft | 212 kts | 283° |
| 2026-05-06 16:25 | 59.82198 | 18.13766 | 2495 ft | 209 kts | 283° |
| 2026-05-06 16:25 | 59.82468 | 18.10934 | 2489 ft | 209 kts | 270° |
| 2026-05-06 16:25 | 59.82026 | 18.08256 | 2524 ft | 207 kts | 235° |
| 2026-05-06 16:26 | 59.81072 | 18.06154 | 2497 ft | 200 kts | 227° |
| 2026-05-06 16:26 | 59.80137 | 18.04189 | 2502 ft | 193 kts | 227° |
| 2026-05-06 16:26 | 59.79218 | 18.02275 | 2500 ft | 188 kts | 224° |
| 2026-05-06 16:26 | 59.78071 | 18.01130 | 2503 ft | 185 kts | 196° |
| 2026-05-06 16:27 | 59.76848 | 18.00447 | 2496 ft | 179 kts | 199° |
| 2026-05-06 16:27 | 59.75661 | 17.99814 | 2392 ft | 175 kts | 194° |
| 2026-05-06 16:27 | 59.74510 | 17.99388 | 2129 ft | 162 kts | 192° |
| 2026-05-06 16:27 | 59.73421 | 17.98994 | 1911 ft | 157 kts | 193° |
| 2026-05-06 16:28 | 59.72345 | 17.98602 | 1726 ft | 155 kts | 192° |
| 2026-05-06 16:28 | 59.71327 | 17.98233 | 1495 ft | 142 kts | 193° |
| 2026-05-06 16:28 | 59.70364 | 17.97882 | 1320 ft | 141 kts | 192° |
| 2026-05-06 16:28 | 59.69389 | 17.97526 | 1090 ft | 143 kts | 191° |
| 2026-05-06 16:29 | 59.68427 | 17.97200 | 996 ft | 142 kts | 191° |
| 2026-05-06 16:29 | 59.67456 | 17.96845 | 736 ft | 141 kts | 189° |
| 2026-05-06 16:29 | 59.66507 | 17.96494 | 473 ft | 136 kts | 188° |
| 2026-05-06 16:29 | 59.65587 | 17.96142 | 284 ft | 132 kts | 186° |
| 2026-05-06 16:30 | 59.64697 | 17.95819 | 135 ft | 126 kts | 186° |
| 2026-05-06 16:30 | 59.64160 | 17.95632 | 114 ft | 112 kts | 189° |
| 2026-05-06 16:30 | 59.63392 | 17.95356 | 123 ft | 76 kts | 189° |
| 2026-05-06 16:30 | 59.63057 | 17.95207 | 139 ft | 41 kts | 200° |
| 2026-05-06 16:31 | 59.62876 | 17.94945 | 141 ft | 23 kts | 221° |
| 2026-05-06 16:31 | 59.62880 | 17.94775 | 141 ft | 13 kts | 343° |
| 2026-05-06 16:31 | 59.62987 | 17.94792 | 138 ft | 18 kts | 12° |
| 2026-05-06 16:31 | 59.63126 | 17.94843 | 126 ft | 23 kts | 11° |
| 2026-05-06 16:32 | 59.63296 | 17.94906 | 124 ft | 27 kts | 9° |
| 2026-05-06 16:32 | 59.63494 | 17.94974 | 119 ft | 30 kts | 9° |
| 2026-05-06 16:32 | 59.63711 | 17.95054 | 114 ft | 33 kts | 12° |
| 2026-05-06 16:32 | 59.63895 | 17.95122 | 112 ft | 26 kts | 10° |
| 2026-05-06 16:33 | 59.64080 | 17.95189 | 109 ft | 28 kts | 11° |
| 2026-05-06 16:33 | 59.64279 | 17.95218 | 109 ft | 29 kts | 346° |
| 2026-05-06 16:33 | 59.64403 | 17.94913 | 107 ft | 30 kts | 279° |
| 2026-05-06 16:34 | 59.64272 | 17.94362 | 107 ft | 23 kts | 237° |
| 2026-05-06 16:34 | 59.64187 | 17.94096 | 110 ft | 23 kts | 238° |
| 2026-05-06 16:34 | 59.64100 | 17.93824 | 113 ft | 24 kts | 238° |
| 2026-05-06 16:34 | 59.64012 | 17.93545 | 113 ft | 21 kts | 240° |
| 2026-05-06 16:35 | 59.64001 | 17.93244 | 113 ft | 25 kts | 287° |
| 2026-05-06 16:35 | 59.64015 | 17.93031 | 112 ft | 16 kts | 233° |
| 2026-05-06 16:35 | 59.63988 | 17.92867 | 113 ft | 6 kts | 233° |
| 2026-05-06 16:35 | 59.63954 | 17.92821 | 113 ft | 0 kts | 209° |
| 2026-05-06 16:36 | 59.63949 | 17.92815 | 113 ft | 1 kts | 209° |
| 2026-05-06 16:36 | 59.63948 | 17.92814 | 113 ft | 0 kts | 209° |